createdAt,value
2023-05-09T00:00:11.346Z,141.70
2023-05-09T00:05:10.391Z,149.88
2023-05-09T00:07:38.190Z,151.23
2023-05-09T00:10:06.183Z,151.07
2023-05-09T00:12:34.083Z,148.73
2023-05-09T00:15:01.742Z,159.15
2023-05-09T00:17:33.559Z,158.32
2023-05-09T00:20:01.814Z,171.15
2023-05-09T00:22:29.874Z,162.23
2023-05-09T00:24:57.404Z,169.50
2023-05-09T00:27:24.957Z,179.95
2023-05-09T00:29:52.487Z,185.05
2023-05-09T00:32:20.106Z,193.18
2023-05-09T00:34:47.650Z,190.25
2023-05-09T00:37:15.193Z,200.98
2023-05-09T00:39:42.756Z,206.43
2023-05-09T00:42:10.304Z,222.93
2023-05-09T00:44:37.928Z,209.07
2023-05-09T00:47:05.969Z,226.55
2023-05-09T00:49:34.128Z,225.52
2023-05-09T00:52:02.625Z,233.63
2023-05-09T00:54:30.287Z,235.00
2023-05-09T00:56:57.827Z,256.52
2023-05-09T00:59:25.768Z,257.27
2023-05-09T01:01:53.627Z,262.90
2023-05-09T01:04:21.265Z,247.90
2023-05-09T01:06:52.582Z,256.75
2023-05-09T01:09:49.605Z,285.20
2023-05-09T01:12:24.410Z,282.23
2023-05-09T01:15:04.772Z,249.10
2023-05-09T01:17:52.123Z,280.25
2023-05-09T01:20:38.049Z,285.02
2023-05-09T01:23:30.595Z,314.05
2023-05-09T01:26:05.322Z,371.00
2023-05-09T01:29:10.615Z,356.40
2023-05-09T01:31:43.905Z,408.42
2023-05-09T01:34:13.578Z,416.25
2023-05-09T01:36:43.681Z,424.02
2023-05-09T01:39:13.921Z,435.05
2023-05-09T01:41:41.678Z,439.98
2023-05-09T01:44:12.805Z,483.20
2023-05-09T01:46:40.833Z,484.42
2023-05-09T01:49:09.807Z,531.67
2023-05-09T01:51:40.732Z,554.90
2023-05-09T01:54:11.444Z,532.97
2023-05-09T01:56:41.373Z,561.38
2023-05-09T01:59:11.275Z,642.17
2023-05-09T02:01:38.879Z,643.30
2023-05-09T02:04:07.446Z,659.55
2023-05-09T02:06:36.552Z,785.53
2023-05-09T02:09:04.611Z,727.50
2023-05-09T02:11:32.330Z,753.38
2023-05-09T02:14:00.191Z,757.00
2023-05-09T02:16:28.268Z,732.05
2023-05-09T02:18:56.135Z,728.65
2023-05-09T02:21:23.887Z,733.13
2023-05-09T02:23:51.505Z,754.58
2023-05-09T02:26:19.598Z,753.85
2023-05-09T02:28:48.019Z,746.88
2023-05-09T02:31:19.405Z,741.13
2023-05-09T02:33:50.542Z,624.20
2023-05-09T02:36:19.272Z,628.20
2023-05-09T02:38:47.478Z,553.25
2023-05-09T02:41:17.479Z,550.30
2023-05-09T02:43:45.496Z,593.75
2023-05-09T02:46:13.231Z,590.63
2023-05-09T02:48:40.877Z,470.92
2023-05-09T02:51:08.503Z,514.10
2023-05-09T02:53:36.224Z,473.40
2023-05-09T02:56:04.300Z,461.35
2023-05-09T02:58:31.913Z,432.52
2023-05-09T03:00:59.501Z,418.60
2023-05-09T03:03:28.133Z,372.70
2023-05-09T03:05:56.283Z,330.42
2023-05-09T03:08:23.886Z,332.40
2023-05-09T03:10:51.911Z,291.38
2023-05-09T03:13:19.703Z,265.42
2023-05-09T03:15:47.399Z,269.33
2023-05-09T03:18:15.095Z,279.00
2023-05-09T03:20:43.920Z,282.55
2023-05-09T03:23:12.019Z,294.65
2023-05-09T03:25:39.584Z,233.13
2023-05-09T03:28:07.183Z,238.43
2023-05-09T03:30:34.822Z,211.93
2023-05-09T03:33:02.619Z,184.27
2023-05-09T03:35:30.254Z,184.48
2023-05-09T03:37:57.898Z,210.70
2023-05-09T03:40:26.002Z,192.27
2023-05-09T03:43:05.074Z,195.98
2023-05-09T03:45:33.129Z,180.18
2023-05-09T03:48:00.949Z,181.65
2023-05-09T03:50:29.902Z,188.65
2023-05-09T03:52:59.329Z,185.07
2023-05-09T03:55:27.943Z,183.23
2023-05-09T03:57:55.969Z,185.38
2023-05-09T04:00:27.058Z,170.48
2023-05-09T04:03:04.535Z,166.13
2023-05-09T04:05:38.100Z,155.32
2023-05-09T04:08:08.610Z,154.98
2023-05-09T04:10:36.309Z,133.85
2023-05-09T04:13:05.216Z,94.32
2023-05-09T04:15:33.078Z,87.72
2023-05-09T04:18:01.074Z,86.57
2023-05-09T04:20:28.810Z,104.95
2023-05-09T04:22:56.461Z,143.80
2023-05-09T04:25:24.100Z,142.48
2023-05-09T04:27:51.911Z,146.90
2023-05-09T04:30:19.662Z,138.27
2023-05-09T04:32:49.262Z,140.35
2023-05-09T04:35:19.876Z,145.40
2023-05-09T04:37:49.610Z,144.43
2023-05-09T04:40:18.132Z,136.98
2023-05-09T04:42:55.366Z,138.90
2023-05-09T04:45:26.605Z,128.93
2023-05-09T04:47:54.877Z,126.85
2023-05-09T04:50:22.667Z,139.88
2023-05-09T04:52:50.283Z,137.82
2023-05-09T04:55:18.538Z,129.88
2023-05-09T04:57:49.194Z,125.55
2023-05-09T05:00:18.004Z,127.88
2023-05-09T05:02:47.412Z,125.90
2023-05-09T05:05:15.421Z,123.97
2023-05-09T05:07:44.581Z,116.70
2023-05-09T05:10:16.999Z,115.17
2023-05-09T05:12:49.076Z,119.93
2023-05-09T05:15:17.991Z,115.85
2023-05-09T05:17:47.104Z,119.55
2023-05-09T05:20:17.671Z,117.43
2023-05-09T05:22:47.579Z,122.70
2023-05-09T05:25:15.574Z,124.28
2023-05-09T05:27:45.208Z,114.00
2023-05-09T05:30:15.961Z,120.38
2023-05-09T05:32:44.382Z,107.30
2023-05-09T05:35:13.784Z,109.20
2023-05-09T05:37:42.581Z,109.40
2023-05-09T05:40:10.906Z,106.43
2023-05-09T05:42:41.759Z,102.13
2023-05-09T05:45:11.785Z,99.70
2023-05-09T05:47:42.879Z,83.78
2023-05-09T05:50:12.317Z,86.40
2023-05-09T05:52:44.567Z,92.15
2023-05-09T05:55:15.523Z,95.65
2023-05-09T05:57:43.291Z,89.63
2023-05-09T06:00:15.261Z,91.20
2023-05-09T06:02:50.272Z,81.80
2023-05-09T06:05:26.885Z,85.65
2023-05-09T06:07:54.456Z,95.18
2023-05-09T06:10:22.061Z,87.35
2023-05-09T06:12:49.940Z,84.97
2023-05-09T06:15:18.234Z,87.88
2023-05-09T06:17:49.246Z,89.03
2023-05-09T06:20:16.917Z,88.47
2023-05-09T06:22:44.500Z,92.00
2023-05-09T06:25:12.267Z,90.28
2023-05-09T06:27:40.373Z,84.05
2023-05-09T06:30:23.720Z,61.83
2023-05-09T06:32:54.039Z,62.95
2023-05-09T06:35:21.905Z,71.90
2023-05-09T06:37:49.943Z,68.60
2023-05-09T06:40:17.770Z,61.50
2023-05-09T06:42:46.048Z,63.15
2023-05-09T06:45:14.065Z,61.40
2023-05-09T06:47:41.788Z,62.33
2023-05-09T06:50:09.801Z,60.83
2023-05-09T06:52:37.585Z,48.92
2023-05-09T06:55:05.766Z,54.20
2023-05-09T06:57:33.863Z,58.08
2023-05-09T07:00:01.874Z,50.17
2023-05-09T07:02:32.796Z,47.35
2023-05-09T07:05:00.612Z,44.30
2023-05-09T07:07:30.790Z,47.25
2023-05-09T07:10:10.478Z,46.05
2023-05-09T07:12:41.159Z,48.92
2023-05-09T07:15:09.607Z,55.60
2023-05-09T07:17:37.330Z,52.13
2023-05-09T07:20:06.035Z,51.30
2023-05-09T07:22:35.587Z,53.17
2023-05-09T07:25:06.059Z,43.50
2023-05-09T07:27:33.737Z,45.38
2023-05-09T07:30:01.276Z,45.88
2023-05-09T07:32:33.972Z,47.17
2023-05-09T07:35:01.626Z,42.92
2023-05-09T07:37:33.408Z,41.85
2023-05-09T07:40:01.024Z,44.03
2023-05-09T07:42:33.411Z,44.50
2023-05-09T07:45:01.374Z,40.35
2023-05-09T07:47:31.560Z,37.75
2023-05-09T07:49:59.344Z,38.80
2023-05-09T07:52:28.285Z,37.38
2023-05-09T07:54:57.063Z,36.63
2023-05-09T07:57:24.671Z,37.05
2023-05-09T07:59:52.266Z,31.17
2023-05-09T08:02:20.005Z,32.45
2023-05-09T08:04:49.285Z,34.97
2023-05-09T08:07:17.126Z,30.88
2023-05-09T08:09:45.160Z,31.40
2023-05-09T08:12:13.005Z,31.45
2023-05-09T08:14:41.059Z,31.85
2023-05-09T08:17:08.686Z,27.75
2023-05-09T08:19:36.245Z,30.27
2023-05-09T08:22:03.911Z,32.05
2023-05-09T08:24:33.107Z,30.83
2023-05-09T08:27:01.028Z,29.63
2023-05-09T08:29:29.312Z,29.35
2023-05-09T08:31:56.907Z,30.85
2023-05-09T08:34:24.750Z,27.85
2023-05-09T08:36:52.288Z,26.33
2023-05-09T08:39:19.757Z,27.02
2023-05-09T08:41:47.322Z,23.80
2023-05-09T08:44:15.063Z,25.83
2023-05-09T08:46:44.836Z,24.95
2023-05-09T08:49:12.891Z,25.25
2023-05-09T08:51:43.654Z,25.40
2023-05-09T08:54:12.692Z,25.15
2023-05-09T08:56:41.310Z,23.67
2023-05-09T08:59:10.237Z,24.02
2023-05-09T09:01:37.853Z,25.90
2023-05-09T09:04:07.525Z,24.13
2023-05-09T09:06:35.855Z,22.55
2023-05-09T09:09:09.218Z,23.70
2023-05-09T09:11:39.241Z,20.92
2023-05-09T09:14:20.619Z,19.23
2023-05-09T09:16:49.815Z,17.48
2023-05-09T09:19:19.359Z,14.00
2023-05-09T09:21:48.566Z,16.00
2023-05-09T09:24:22.509Z,16.20
2023-05-09T09:26:51.467Z,14.60
2023-05-09T09:29:20.910Z,15.80
2023-05-09T09:31:53.721Z,20.42
2023-05-09T09:34:23.106Z,16.95
2023-05-09T09:36:50.936Z,16.15
2023-05-09T09:39:18.567Z,13.68
2023-05-09T09:41:47.137Z,12.95
2023-05-09T09:44:17.092Z,14.68
2023-05-09T09:46:46.721Z,12.00
2023-05-09T09:49:15.815Z,15.32
2023-05-09T09:51:43.779Z,7.75
2023-05-09T09:54:13.281Z,10.27
2023-05-09T09:56:45.945Z,9.40
2023-05-09T09:59:18.963Z,11.57
2023-05-09T10:01:58.027Z,9.10
2023-05-09T10:04:27.568Z,9.25
2023-05-09T10:07:06.658Z,14.27
2023-05-09T10:09:36.104Z,12.35
2023-05-09T10:12:06.571Z,11.27
2023-05-09T10:14:36.264Z,13.02
2023-05-09T10:17:05.986Z,9.68
2023-05-09T10:19:33.875Z,8.48
2023-05-09T10:22:08.584Z,8.57
2023-05-09T10:24:51.620Z,8.02
2023-05-09T10:27:23.508Z,11.15
2023-05-09T10:30:17.445Z,8.20
2023-05-09T10:33:11.579Z,9.77
2023-05-09T10:35:48.110Z,9.73
2023-05-09T10:38:17.195Z,7.65
2023-05-09T10:40:48.261Z,9.05
2023-05-09T10:43:16.368Z,8.50
2023-05-09T10:45:44.947Z,8.68
2023-05-09T10:48:14.131Z,7.63
2023-05-09T10:50:42.895Z,9.55
2023-05-09T10:53:21.912Z,8.10
2023-05-09T10:55:52.188Z,7.10
2023-05-09T10:58:28.228Z,4.97
2023-05-09T11:00:57.744Z,6.28
2023-05-09T11:03:27.525Z,7.07
2023-05-09T11:05:57.523Z,6.78
2023-05-09T11:08:30.038Z,6.00
2023-05-09T11:11:02.752Z,5.28
2023-05-09T11:13:38.754Z,5.23
2023-05-09T11:16:09.842Z,3.78
2023-05-09T11:18:52.246Z,4.13
2023-05-09T11:21:20.903Z,3.03
2023-05-09T11:23:48.871Z,5.25
2023-05-09T11:26:17.165Z,4.95
2023-05-09T11:28:54.639Z,3.90
2023-05-09T11:31:23.227Z,3.92
2023-05-09T11:33:56.673Z,3.85
2023-05-09T11:36:33.985Z,4.10
2023-05-09T11:39:07.371Z,5.45
2023-05-09T11:41:44.044Z,3.08
2023-05-09T11:44:18.955Z,4.03
2023-05-09T11:46:47.970Z,3.65
2023-05-09T11:49:17.450Z,4.80
2023-05-09T11:51:45.168Z,3.30
2023-05-09T11:54:15.269Z,4.20
2023-05-09T11:56:43.602Z,5.00
2023-05-09T11:59:13.484Z,4.28
2023-05-09T12:01:41.354Z,3.97
2023-05-09T12:04:09.343Z,2.85
2023-05-09T12:06:38.024Z,4.72
2023-05-09T12:09:05.744Z,4.85
2023-05-09T12:11:35.209Z,3.65
2023-05-09T12:14:02.933Z,4.10
2023-05-09T12:16:31.013Z,4.25
2023-05-09T12:18:58.623Z,3.35
2023-05-09T12:21:26.422Z,4.80
2023-05-09T12:23:56.479Z,3.25
2023-05-09T12:26:24.027Z,3.92
2023-05-09T12:28:52.464Z,8.50
2023-05-09T12:31:20.834Z,3.35
2023-05-09T12:33:48.743Z,4.18
2023-05-09T12:36:16.587Z,6.65
2023-05-09T12:38:56.283Z,4.30
2023-05-09T12:43:55.758Z,4.38
2023-05-09T12:46:23.703Z,2.47
2023-05-09T12:48:51.978Z,5.70
2023-05-09T12:51:21.928Z,3.67
2023-05-09T12:53:50.125Z,3.08
2023-05-09T12:56:20.635Z,6.07
2023-05-09T12:58:50.868Z,3.63
2023-05-09T13:01:23.422Z,4.95
2023-05-09T13:04:05.287Z,3.30
2023-05-09T13:06:34.715Z,4.00
2023-05-09T13:09:06.332Z,4.10
2023-05-09T13:11:34.544Z,4.30
2023-05-09T13:14:04.382Z,3.40
2023-05-09T13:16:32.204Z,5.13
2023-05-09T13:19:01.916Z,5.68
2023-05-09T13:21:29.468Z,3.13
2023-05-09T13:23:57.079Z,3.67
2023-05-09T13:26:24.777Z,2.70
2023-05-09T13:28:52.321Z,2.97
2023-05-09T13:31:20.159Z,5.22
2023-05-09T13:33:49.345Z,5.22
2023-05-09T13:36:19.461Z,3.55
2023-05-09T13:38:47.421Z,3.70
2023-05-09T13:41:20.515Z,3.70
2023-05-09T13:43:48.234Z,2.67
2023-05-09T13:46:16.012Z,3.65
2023-05-09T13:48:44.817Z,3.60
2023-05-09T13:51:12.429Z,2.78
2023-05-09T13:53:40.054Z,4.78
2023-05-09T13:56:09.954Z,2.80
2023-05-09T13:58:37.661Z,3.35
2023-05-09T14:01:05.427Z,3.80
2023-05-09T14:03:33.133Z,2.75
2023-05-09T14:06:00.781Z,5.15
2023-05-09T14:08:28.352Z,3.42
2023-05-09T14:10:55.998Z,6.55
2023-05-09T14:13:23.621Z,5.22
2023-05-09T14:15:51.251Z,3.33
2023-05-09T14:18:20.937Z,5.57
2023-05-09T14:20:49.056Z,4.75
2023-05-09T14:23:16.901Z,4.95
2023-05-09T14:25:45.094Z,5.95
2023-05-09T14:28:13.196Z,3.75
2023-05-09T14:30:41.464Z,3.22
2023-05-09T14:33:09.180Z,3.53
2023-05-09T14:35:37.880Z,4.45
2023-05-09T14:38:07.697Z,5.85
2023-05-09T14:40:35.273Z,3.92
2023-05-09T14:43:02.932Z,5.80
2023-05-09T14:45:31.818Z,5.22
2023-05-09T14:48:03.760Z,6.25
2023-05-09T14:50:31.764Z,7.43
2023-05-09T14:53:01.129Z,4.32
2023-05-09T14:55:28.785Z,4.05
2023-05-09T14:57:56.774Z,4.53
2023-05-09T15:00:25.940Z,4.68
2023-05-09T15:02:53.865Z,3.90
2023-05-09T15:05:21.697Z,4.65
2023-05-09T15:07:49.305Z,5.00
2023-05-09T15:10:17.070Z,4.25
2023-05-09T15:12:44.896Z,4.13
2023-05-09T15:15:17.760Z,3.20
2023-05-09T15:17:46.286Z,5.33
2023-05-09T15:20:20.664Z,6.00
2023-05-09T15:22:50.098Z,4.00
2023-05-09T15:25:18.162Z,5.60
2023-05-09T15:27:45.925Z,3.97
2023-05-09T15:30:14.276Z,5.72
2023-05-09T15:32:42.242Z,6.38
2023-05-09T15:35:10.663Z,4.35
2023-05-09T15:37:38.685Z,5.15
2023-05-09T15:40:07.898Z,5.03
2023-05-09T15:42:36.229Z,3.13
2023-05-09T15:45:04.237Z,4.50
2023-05-09T15:47:33.571Z,7.68
2023-05-09T15:50:01.408Z,12.52
2023-05-09T15:52:32.286Z,8.20
2023-05-09T15:55:02.683Z,7.07
2023-05-09T15:57:31.973Z,5.82
2023-05-09T15:59:59.592Z,6.43
2023-05-09T16:02:28.726Z,9.63
2023-05-09T16:04:56.465Z,7.28
2023-05-09T16:07:25.227Z,7.82
2023-05-09T16:09:52.851Z,7.13
2023-05-09T16:12:20.348Z,6.90
2023-05-09T16:14:48.041Z,7.25
2023-05-09T16:17:15.588Z,9.35
2023-05-09T16:19:44.483Z,10.30
2023-05-09T16:22:12.119Z,10.93
2023-05-09T16:24:39.725Z,11.52
2023-05-09T16:27:07.708Z,12.05
2023-05-09T16:29:35.360Z,13.15
2023-05-09T16:32:03.460Z,11.88
2023-05-09T16:34:32.043Z,9.80
2023-05-09T16:37:00.140Z,9.73
2023-05-09T16:39:28.307Z,10.65
2023-05-09T16:41:56.972Z,7.70
2023-05-09T16:44:27.950Z,9.43
2023-05-09T16:46:55.692Z,8.73
2023-05-09T16:49:23.401Z,6.35
2023-05-09T16:51:51.013Z,6.93
2023-05-09T16:54:18.538Z,8.63
2023-05-09T16:56:46.524Z,11.90
2023-05-09T16:59:14.149Z,12.70
2023-05-09T17:01:42.827Z,9.45
2023-05-09T17:04:10.404Z,10.85
2023-05-09T17:06:38.057Z,12.38
2023-05-09T17:09:05.551Z,9.15
2023-05-09T17:11:33.725Z,8.57
2023-05-09T17:14:03.673Z,10.05
2023-05-09T17:16:31.303Z,11.02
2023-05-09T17:18:58.960Z,17.27
2023-05-09T17:21:26.992Z,12.52
2023-05-09T17:23:54.610Z,14.85
2023-05-09T17:26:22.580Z,15.32
2023-05-09T17:28:50.373Z,16.00
2023-05-09T17:31:18.196Z,14.10
2023-05-09T17:33:45.791Z,17.27
2023-05-09T17:36:13.439Z,16.02
2023-05-09T17:38:41.090Z,14.50
2023-05-09T17:41:08.574Z,16.70
2023-05-09T17:43:36.246Z,14.60
2023-05-09T17:46:05.098Z,14.15
2023-05-09T17:48:33.027Z,15.48
2023-05-09T17:51:00.997Z,15.05
2023-05-09T17:53:28.585Z,12.68
2023-05-09T17:55:58.191Z,15.00
2023-05-09T17:58:28.022Z,13.00
2023-05-09T18:00:56.302Z,13.73
2023-05-09T18:03:24.231Z,13.05
2023-05-09T18:05:53.186Z,13.48
2023-05-09T18:08:20.839Z,12.15
2023-05-09T18:10:48.955Z,17.15
2023-05-09T18:13:17.419Z,17.10
2023-05-09T18:15:45.590Z,19.42
2023-05-09T18:18:14.909Z,17.08
2023-05-09T18:20:42.985Z,19.70
2023-05-09T18:23:12.096Z,16.65
2023-05-09T18:25:39.701Z,20.08
2023-05-09T18:28:07.394Z,19.40
2023-05-09T18:30:36.483Z,19.88
2023-05-09T18:33:04.327Z,17.88
2023-05-09T18:35:32.555Z,19.88
2023-05-09T18:38:00.126Z,19.88
2023-05-09T18:40:28.252Z,17.20
2023-05-09T18:42:55.926Z,19.17
2023-05-09T18:45:23.620Z,20.27
2023-05-09T18:47:51.438Z,18.60
2023-05-09T18:50:19.236Z,23.75
2023-05-09T18:52:46.796Z,19.77
2023-05-09T18:55:15.147Z,22.05
2023-05-09T18:57:42.722Z,19.30
2023-05-09T19:00:10.642Z,20.85
2023-05-09T19:02:38.592Z,19.02
2023-05-09T19:05:08.252Z,21.15
2023-05-09T19:07:36.282Z,22.55
2023-05-09T19:10:04.912Z,21.38
2023-05-09T19:12:32.687Z,22.08
2023-05-09T19:15:00.318Z,22.73
2023-05-09T19:17:28.187Z,21.00
2023-05-09T19:19:55.937Z,21.63
2023-05-09T19:22:23.505Z,20.90
2023-05-09T19:24:53.675Z,21.95
2023-05-09T19:27:21.278Z,20.30
2023-05-09T19:29:49.926Z,22.30
2023-05-09T19:32:20.713Z,21.98
2023-05-09T19:34:48.398Z,20.70
2023-05-09T19:37:15.849Z,19.05
2023-05-09T19:39:43.474Z,22.33
2023-05-09T19:42:11.008Z,22.52
2023-05-09T19:44:39.274Z,25.67
2023-05-09T19:47:09.113Z,24.52
2023-05-09T19:49:36.816Z,25.48
2023-05-09T19:52:04.474Z,23.73
2023-05-09T19:54:32.259Z,24.17
2023-05-09T19:56:59.934Z,24.73
2023-05-09T19:59:27.626Z,21.13
2023-05-09T20:01:55.320Z,25.80
2023-05-09T20:04:24.249Z,24.77
2023-05-09T20:06:51.893Z,26.30
2023-05-09T20:09:21.224Z,21.98
2023-05-09T20:11:48.986Z,23.80
2023-05-09T20:14:16.954Z,19.48
2023-05-09T20:16:44.663Z,23.67
2023-05-09T20:19:14.487Z,21.98
2023-05-09T20:21:42.171Z,22.38
2023-05-09T20:24:09.794Z,24.33
2023-05-09T20:26:37.312Z,23.25
2023-05-09T20:29:05.210Z,21.75
2023-05-09T20:31:32.953Z,24.05
2023-05-09T20:34:00.696Z,21.33
2023-05-09T20:36:28.913Z,23.35
2023-05-09T20:38:57.780Z,23.17
2023-05-09T20:41:25.790Z,28.77
2023-05-09T20:43:53.506Z,25.85
2023-05-09T20:46:21.126Z,27.38
2023-05-09T20:48:49.029Z,33.35
2023-05-09T20:51:16.606Z,28.50
2023-05-09T20:53:44.181Z,26.27
2023-05-09T20:56:11.847Z,27.85
2023-05-09T20:58:39.489Z,24.92
2023-05-09T21:01:07.270Z,27.40
2023-05-09T21:03:34.997Z,28.95
2023-05-09T21:06:02.572Z,28.83
2023-05-09T21:08:30.141Z,24.48
2023-05-09T21:10:57.700Z,23.88
2023-05-09T21:13:25.473Z,28.85
2023-05-09T21:15:53.198Z,27.90
2023-05-09T21:18:21.341Z,26.15
2023-05-09T21:20:49.034Z,27.33
2023-05-09T21:23:18.821Z,25.27
2023-05-09T21:25:46.458Z,27.55
2023-05-09T21:28:15.817Z,24.00
2023-05-09T21:30:43.489Z,23.70
2023-05-09T21:33:11.345Z,24.02
2023-05-09T21:35:38.999Z,25.80
2023-05-09T21:38:06.597Z,30.55
2023-05-09T21:40:34.192Z,34.58
2023-05-09T21:43:01.727Z,36.10
2023-05-09T21:45:29.345Z,38.03
2023-05-09T21:47:57.040Z,38.08
2023-05-09T21:50:24.699Z,40.42
2023-05-09T21:52:52.723Z,46.22
2023-05-09T21:55:20.312Z,48.53
2023-05-09T21:57:48.111Z,49.67
2023-05-09T22:00:16.993Z,52.70
2023-05-09T22:02:45.401Z,47.50
2023-05-09T22:05:13.291Z,47.03
2023-05-09T22:07:40.868Z,46.78
2023-05-09T22:10:09.280Z,50.92
2023-05-09T22:12:36.781Z,52.17
2023-05-09T22:15:04.828Z,45.25
2023-05-09T22:17:33.605Z,43.35
2023-05-09T22:20:01.910Z,43.97
2023-05-09T22:22:33.565Z,53.63
2023-05-09T22:25:01.313Z,40.47
2023-05-09T22:27:30.064Z,43.33
2023-05-09T22:29:57.706Z,34.67
2023-05-09T22:32:25.290Z,30.48
2023-05-09T22:34:54.352Z,32.53
2023-05-09T22:37:21.901Z,30.30
2023-05-09T22:39:49.506Z,31.10
2023-05-09T22:42:17.199Z,35.53
2023-05-09T22:44:45.226Z,33.25
2023-05-09T22:47:12.760Z,35.47
2023-05-09T22:49:40.385Z,35.85
2023-05-09T22:52:08.077Z,38.95
2023-05-09T22:54:35.742Z,32.38
2023-05-09T22:57:03.396Z,36.03
2023-05-09T22:59:31.058Z,36.05
2023-05-09T23:01:59.797Z,33.20
2023-05-09T23:04:27.639Z,44.00
2023-05-09T23:06:55.277Z,47.90
2023-05-09T23:09:23.032Z,42.50
2023-05-09T23:11:50.660Z,48.00
2023-05-09T23:14:18.335Z,41.17
2023-05-09T23:16:45.872Z,41.13
2023-05-09T23:19:13.441Z,39.78
2023-05-09T23:21:41.074Z,36.65
2023-05-09T23:24:08.866Z,33.58
2023-05-09T23:26:36.449Z,38.47
2023-05-09T23:29:04.243Z,40.55
2023-05-09T23:31:32.018Z,42.67
2023-05-09T23:34:00.193Z,43.97
2023-05-09T23:36:28.436Z,41.65
2023-05-09T23:38:55.981Z,49.13
2023-05-09T23:41:23.566Z,43.25
2023-05-09T23:43:51.198Z,46.17
2023-05-09T23:46:18.757Z,46.10
2023-05-09T23:48:46.375Z,46.35
2023-05-09T23:51:13.979Z,47.20
2023-05-09T23:53:41.604Z,41.88
2023-05-09T23:56:09.510Z,47.58
2023-05-09T23:58:37.261Z,34.13
